Opa Locka, Florida
Current Conditions -  °F | °C
As of 1:53 PM on Sunday 21 Dec 2014 (Local Time) from KOPF Reporting Station
Scattered Clouds Scattered Clouds  
Wind Chill: 77°   Ceiling: Unl
Heat Index: 79°   Visibility: 10mi
Dew Point: 64°   Wind: 10mph
Humidity: 64%   Direction: 140°SE
Pressure: 30.05"   Gusts: NA
Location:  25.92°N, 80.28°W
Report Text: KOPF 211853Z 14009KT 10SM SCT039 25/18 A3005 RMK AO2 SLP176 T02500178
Loading
Personal Weather Stations






























Interactive Weather Map New forecast layout! Learn more

10-Day Weather Forecast

Advertisements
Track Severe Weather on mobile